createdAt,value
2023-04-12T00:00:48.431Z,99025.34
2023-04-12T00:03:20.377Z,99029.06
2023-04-12T00:05:54.649Z,99028.84
2023-04-12T00:08:33.648Z,99020.59
2023-04-12T00:11:02.481Z,99030.09
2023-04-12T00:13:30.685Z,99040.03
2023-04-12T00:15:58.210Z,99028.03
2023-04-12T00:18:26.052Z,99023.34
2023-04-12T00:20:55.661Z,99034.81
2023-04-12T00:23:23.069Z,99034.78
2023-04-12T00:25:50.679Z,99040.13
2023-04-12T00:28:18.834Z,99038.63
2023-04-12T00:30:46.268Z,99039.56
2023-04-12T00:33:13.672Z,99036.50
2023-04-12T00:35:41.333Z,99040.28
2023-04-12T00:38:10.816Z,99026.78
2023-04-12T00:40:42.714Z,99024.81
2023-04-12T00:43:15.628Z,99014.91
2023-04-12T00:45:44.428Z,99017.94
2023-04-12T00:48:12.752Z,99008.41
2023-04-12T00:50:47.543Z,99019.72
2023-04-12T00:53:15.892Z,99010.59
2023-04-12T00:55:45.339Z,99011.53
2023-04-12T00:58:14.355Z,99018.59
2023-04-12T01:00:44.862Z,99014.94
2023-04-12T01:03:13.843Z,99016.09
2023-04-12T01:05:49.257Z,99009.87
2023-04-12T01:08:28.636Z,99009.22
2023-04-12T01:11:05.480Z,99011.66
2023-04-12T01:13:42.630Z,99009.69
2023-04-12T01:16:29.884Z,99000.94
2023-04-12T01:19:03.766Z,99002.91
2023-04-12T01:21:42.592Z,99014.34
2023-04-12T01:24:26.722Z,99029.59
2023-04-12T01:26:57.733Z,99022.03
2023-04-12T01:29:27.730Z,99023.88
2023-04-12T01:31:59.836Z,99026.22
2023-04-12T01:34:30.313Z,99036.69
2023-04-12T01:37:01.629Z,99025.41
2023-04-12T01:39:33.593Z,99024.28
2023-04-12T01:42:03.382Z,99023.88
2023-04-12T01:44:30.877Z,99008.50
2023-04-12T01:46:58.848Z,99018.87
2023-04-12T01:49:32.354Z,99014.84
2023-04-12T01:52:12.982Z,99017.03
2023-04-12T01:54:42.988Z,99017.00
2023-04-12T01:57:11.029Z,99025.53
2023-04-12T01:59:43.642Z,99019.09
2023-04-12T02:02:12.210Z,99014.03
2023-04-12T02:04:40.851Z,99011.34
2023-04-12T02:07:09.453Z,99012.75
2023-04-12T02:09:40.025Z,99015.31
2023-04-12T02:12:08.694Z,99010.59
2023-04-12T02:14:37.095Z,99006.38
2023-04-12T02:17:05.576Z,99015.25
2023-04-12T02:19:33.345Z,99015.25
2023-04-12T02:22:02.352Z,99007.25
2023-04-12T02:24:30.072Z,99015.50
2023-04-12T02:26:59.155Z,99021.78
2023-04-12T02:29:27.421Z,99021.31
2023-04-12T02:31:54.886Z,99019.59
2023-04-12T02:34:23.165Z,99021.31
2023-04-12T02:36:51.223Z,99019.69
2023-04-12T02:39:19.018Z,99011.69
2023-04-12T02:41:47.318Z,99017.44
2023-04-12T02:44:15.955Z,99011.44
2023-04-12T02:46:44.335Z,99011.97
2023-04-12T02:49:12.052Z,99006.00
2023-04-12T02:51:40.767Z,99005.59
2023-04-12T02:54:08.431Z,99009.75
2023-04-12T02:56:37.051Z,98999.28
2023-04-12T02:59:06.863Z,99000.34
2023-04-12T03:01:35.087Z,98993.50
2023-04-12T03:04:04.001Z,99002.78
2023-04-12T03:06:32.284Z,98996.09
2023-04-12T03:09:00.420Z,98996.44
2023-04-12T03:11:28.013Z,98995.50
2023-04-12T03:13:56.173Z,98997.22
2023-04-12T03:16:25.787Z,98986.63
2023-04-12T03:18:54.032Z,98987.81
2023-04-12T03:21:22.308Z,98978.44
2023-04-12T03:23:49.787Z,98977.38
2023-04-12T03:26:20.659Z,98980.91
2023-04-12T03:28:49.439Z,98976.66
2023-04-12T03:31:21.022Z,98977.13
2023-04-12T03:33:48.986Z,98978.41
2023-04-12T03:36:17.531Z,98960.81
2023-04-12T03:39:05.243Z,98969.53
2023-04-12T03:41:33.746Z,98962.94
2023-04-12T03:44:02.665Z,98953.22
2023-04-12T03:46:31.327Z,98960.59
2023-04-12T03:48:59.667Z,98959.25
2023-04-12T03:51:27.378Z,98963.41
2023-04-12T03:53:55.732Z,98958.06
2023-04-12T03:56:23.518Z,98960.66
2023-04-12T03:58:51.401Z,98955.56
2023-04-12T04:01:19.935Z,98959.81
2023-04-12T04:03:48.326Z,98953.09
2023-04-12T04:06:17.559Z,98962.41
2023-04-12T04:08:45.947Z,98959.59
2023-04-12T04:11:14.363Z,98962.25
2023-04-12T04:13:42.371Z,98963.19
2023-04-12T04:16:11.063Z,98957.56
2023-04-12T04:18:39.586Z,98958.66
2023-04-12T04:21:07.868Z,98958.66
2023-04-12T04:23:39.175Z,98967.16
2023-04-12T04:26:10.490Z,98963.19
2023-04-12T04:28:39.649Z,98955.47
2023-04-12T04:31:07.952Z,98960.03
2023-04-12T04:33:36.741Z,98967.38
2023-04-12T04:36:04.809Z,98964.47
2023-04-12T04:38:33.812Z,98951.81
2023-04-12T04:41:05.363Z,98963.03
2023-04-12T04:43:35.284Z,98960.84
2023-04-12T04:46:03.149Z,98957.34
2023-04-12T04:48:30.788Z,98953.53
2023-04-12T04:51:00.648Z,98956.31
2023-04-12T04:53:28.053Z,98953.25
2023-04-12T04:56:01.086Z,98952.78
2023-04-12T04:58:30.350Z,98951.38
2023-04-12T05:00:59.873Z,98949.19
2023-04-12T05:03:30.955Z,98947.88
2023-04-12T05:06:01.140Z,98949.16
2023-04-12T05:08:28.894Z,98946.28
2023-04-12T05:10:57.203Z,98956.75
2023-04-12T05:13:25.943Z,98954.28
2023-04-12T05:15:53.844Z,98963.56
2023-04-12T05:18:21.291Z,98953.75
2023-04-12T05:20:49.333Z,98953.22
2023-04-12T05:23:17.448Z,98954.38
2023-04-12T05:25:50.103Z,98947.66
2023-04-12T05:28:18.034Z,98962.63
2023-04-12T05:30:46.223Z,98956.22
2023-04-12T05:33:14.091Z,98953.28
2023-04-12T05:35:43.198Z,98956.13
2023-04-12T05:38:11.820Z,98957.97
2023-04-12T05:40:39.465Z,98965.22
2023-04-12T05:43:08.574Z,98965.84
2023-04-12T05:45:36.267Z,98962.13
2023-04-12T05:48:03.972Z,98957.53
2023-04-12T05:50:32.040Z,98950.19
2023-04-12T05:53:01.584Z,98953.91
2023-04-12T05:55:30.023Z,98950.69
2023-04-12T05:57:58.674Z,98946.44
2023-04-12T06:00:27.788Z,98943.13
2023-04-12T06:02:57.128Z,98948.38
2023-04-12T06:05:24.996Z,98948.66
2023-04-12T06:07:52.451Z,98947.81
2023-04-12T06:10:20.229Z,98945.41
2023-04-12T06:12:48.752Z,98945.41
2023-04-12T06:15:16.354Z,98948.22
2023-04-12T06:17:45.230Z,98943.94
2023-04-12T06:20:13.005Z,98954.34
2023-04-12T06:22:40.438Z,98946.47
2023-04-12T06:25:08.565Z,98948.22
2023-04-12T06:27:36.323Z,98956.63
2023-04-12T06:30:04.253Z,98945.19
2023-04-12T06:32:32.434Z,98946.72
2023-04-12T06:35:00.670Z,98945.94
2023-04-12T06:37:28.283Z,98951.75
2023-04-12T06:39:56.015Z,98950.88
2023-04-12T06:42:23.469Z,98964.81
2023-04-12T06:44:50.864Z,98961.06
2023-04-12T06:47:18.519Z,98967.84
2023-04-12T06:49:45.985Z,98965.59
2023-04-12T06:52:13.366Z,98966.13
2023-04-12T06:54:41.918Z,98967.09
2023-04-12T06:57:11.237Z,98965.94
2023-04-12T06:59:38.781Z,98969.72
2023-04-12T07:02:07.861Z,98974.66
2023-04-12T07:04:35.341Z,98968.78
2023-04-12T07:07:02.702Z,98970.81
2023-04-12T07:09:33.515Z,98972.03
2023-04-12T07:12:02.275Z,98975.44
2023-04-12T07:14:30.032Z,98973.78
2023-04-12T07:16:57.444Z,98977.59
2023-04-12T07:19:25.072Z,98972.03
2023-04-12T07:21:52.739Z,98968.72
2023-04-12T07:24:20.123Z,98966.19
2023-04-12T07:26:48.330Z,98952.38
2023-04-12T07:29:17.339Z,98954.31
2023-04-12T07:31:45.679Z,98954.50
2023-04-12T07:34:13.238Z,98941.87
2023-04-12T07:36:40.985Z,98941.81
2023-04-12T07:39:11.968Z,98942.13
2023-04-12T07:41:39.656Z,98942.22
2023-04-12T07:44:07.331Z,98948.97
2023-04-12T07:46:34.825Z,98948.03
2023-04-12T07:49:02.252Z,98944.88
2023-04-12T07:51:30.050Z,98949.97
2023-04-12T07:53:57.598Z,98935.94
2023-04-12T07:56:25.669Z,98925.63
2023-04-12T07:58:53.320Z,98919.72
2023-04-12T08:01:20.828Z,98923.44
2023-04-12T08:03:48.534Z,98919.66
2023-04-12T08:06:17.446Z,98920.56
2023-04-12T08:08:45.053Z,98919.91
2023-04-12T08:11:12.722Z,98923.00
2023-04-12T08:13:40.114Z,98924.56
2023-04-12T08:16:08.995Z,98928.72
2023-04-12T08:18:36.810Z,98935.81
2023-04-12T08:21:04.350Z,98941.72
2023-04-12T08:23:31.775Z,98946.53
2023-04-12T08:26:03.776Z,98938.25
2023-04-12T08:28:31.486Z,98935.84
2023-04-12T08:30:59.653Z,98935.00
2023-04-12T08:33:27.531Z,98948.41
2023-04-12T08:35:55.310Z,98944.75
2023-04-12T08:38:30.645Z,98941.94
2023-04-12T08:41:09.304Z,98934.53
2023-04-12T08:43:38.404Z,98929.13
2023-04-12T08:46:07.609Z,98928.59
2023-04-12T08:48:36.208Z,98936.38
2023-04-12T08:51:04.514Z,98933.94
2023-04-12T08:53:33.599Z,98944.06
2023-04-12T08:56:01.267Z,98921.78
2023-04-12T08:58:29.874Z,98930.56
2023-04-12T09:00:57.610Z,98927.13
2023-04-12T09:03:25.492Z,98938.31
2023-04-12T09:05:53.270Z,98932.06
2023-04-12T09:08:20.668Z,98923.06
2023-04-12T09:10:48.076Z,98926.44
2023-04-12T09:13:15.732Z,98938.81
2023-04-12T09:15:50.389Z,98941.63
2023-04-12T09:18:18.834Z,98930.78
2023-04-12T09:20:46.539Z,98924.00
2023-04-12T09:23:21.700Z,98917.09
2023-04-12T09:25:52.773Z,98914.16
2023-04-12T09:28:27.527Z,98927.81
2023-04-12T09:30:56.624Z,98924.88
2023-04-12T09:33:34.396Z,98911.06
2023-04-12T09:36:03.235Z,98917.50
2023-04-12T09:38:31.450Z,98914.44
2023-04-12T09:41:21.551Z,98913.47
2023-04-12T09:43:51.459Z,98908.97
2023-04-12T09:46:18.926Z,98908.12
2023-04-12T09:48:51.533Z,98899.59
2023-04-12T09:51:36.443Z,98900.25
2023-04-12T09:54:06.458Z,98899.78
2023-04-12T09:56:35.923Z,98896.97
2023-04-12T09:59:05.033Z,98891.94
2023-04-12T10:01:38.189Z,98885.69
2023-04-12T10:04:07.737Z,98876.44
2023-04-12T10:06:37.115Z,98882.66
2023-04-12T10:09:05.045Z,98895.78
2023-04-12T10:11:34.228Z,98883.25
2023-04-12T10:14:03.001Z,98883.94
2023-04-12T10:16:31.164Z,98886.94
2023-04-12T10:19:02.246Z,98881.69
2023-04-12T10:21:30.284Z,98887.31
2023-04-12T10:23:58.245Z,98877.84
2023-04-12T10:26:26.594Z,98874.56
2023-04-12T10:29:29.243Z,98872.41
2023-04-12T10:31:58.709Z,98875.72
2023-04-12T10:34:30.462Z,98875.41
2023-04-12T10:37:01.866Z,98884.62
2023-04-12T10:39:42.987Z,98878.19
2023-04-12T10:42:25.296Z,98872.59
2023-04-12T10:44:54.904Z,98865.84
2023-04-12T10:47:54.614Z,98868.13
2023-04-12T10:50:30.124Z,98863.59
2023-04-12T10:53:12.602Z,98856.41
2023-04-12T10:55:41.210Z,98859.47
2023-04-12T10:58:10.031Z,98841.72
2023-04-12T11:01:06.734Z,98844.56
2023-04-12T11:03:34.677Z,98840.31
2023-04-12T11:06:20.012Z,98835.63
2023-04-12T11:08:56.498Z,98845.91
2023-04-12T11:11:25.535Z,98842.87
2023-04-12T11:13:57.205Z,98845.91
2023-04-12T11:16:24.599Z,98834.94
2023-04-12T11:18:52.123Z,98838.03
2023-04-12T11:21:20.359Z,98832.50
2023-04-12T11:23:47.974Z,98825.25
2023-04-12T11:26:20.438Z,98831.31
2023-04-12T11:28:50.233Z,98828.47
2023-04-12T11:31:20.280Z,98827.84
2023-04-12T11:33:47.962Z,98818.06
2023-04-12T11:36:15.412Z,98816.31
2023-04-12T11:38:45.952Z,98815.06
2023-04-12T11:41:14.792Z,98815.72
2023-04-12T11:43:42.662Z,98833.22
2023-04-12T11:46:10.567Z,98823.72
2023-04-12T11:48:40.975Z,98813.59
2023-04-12T11:51:21.864Z,98809.69
2023-04-12T11:53:53.005Z,98814.97
2023-04-12T11:56:20.416Z,98809.66
2023-04-12T11:58:48.080Z,98818.13
2023-04-12T12:01:16.202Z,98819.28
2023-04-12T12:03:44.252Z,98812.34
2023-04-12T12:06:12.761Z,98800.34
2023-04-12T12:08:40.642Z,98810.31
2023-04-12T12:11:08.977Z,98799.72
2023-04-12T12:13:52.934Z,98797.66
2023-04-12T12:16:25.742Z,98792.88
2023-04-12T12:18:53.386Z,98780.44
2023-04-12T12:21:21.754Z,98787.84
2023-04-12T12:23:49.720Z,98787.78
2023-04-12T12:26:28.275Z,98787.44
2023-04-12T12:28:57.613Z,98775.75
2023-04-12T12:31:30.729Z,98768.47
2023-04-12T12:34:02.665Z,98777.00
2023-04-12T12:36:33.693Z,98772.81
2023-04-12T12:39:12.362Z,98765.31
2023-04-12T12:41:40.562Z,98760.09
2023-04-12T12:44:08.926Z,98752.25
2023-04-12T12:46:51.912Z,98752.63
2023-04-12T12:49:23.188Z,98751.91
2023-04-12T12:51:50.719Z,98752.91
2023-04-12T12:54:32.205Z,98756.00
2023-04-12T12:57:05.802Z,98759.47
2023-04-12T12:59:33.180Z,98750.03
2023-04-12T13:02:00.738Z,98751.63
2023-04-12T13:04:28.793Z,98755.72
2023-04-12T13:06:56.361Z,98747.84
2023-04-12T13:09:23.769Z,98756.25
2023-04-12T13:11:51.671Z,98746.25
2023-04-12T13:14:19.088Z,98743.19
2023-04-12T13:16:48.621Z,98735.72
2023-04-12T13:19:16.477Z,98735.59
2023-04-12T13:21:43.897Z,98734.44
2023-04-12T13:24:11.272Z,98731.97
2023-04-12T13:26:39.106Z,98726.88
2023-04-12T13:29:06.621Z,98722.41
2023-04-12T13:31:34.060Z,98719.00
2023-04-12T13:34:01.813Z,98720.63
2023-04-12T13:36:29.263Z,98718.66
2023-04-12T13:38:56.899Z,98707.44
2023-04-12T13:41:24.724Z,98712.81
2023-04-12T13:43:52.114Z,98703.69
2023-04-12T13:46:19.783Z,98710.94
2023-04-12T13:48:47.465Z,98702.84
2023-04-12T13:51:14.860Z,98701.06
2023-04-12T13:53:42.305Z,98704.00
2023-04-12T13:56:11.816Z,98698.56
2023-04-12T13:58:41.766Z,98700.88
2023-04-12T14:01:09.918Z,98702.66
2023-04-12T14:03:37.678Z,98699.66
2023-04-12T14:06:05.931Z,98696.25
2023-04-12T14:08:34.089Z,98697.75
2023-04-12T14:11:03.157Z,98691.28
2023-04-12T14:13:30.730Z,98695.69
2023-04-12T14:15:58.238Z,98696.72
2023-04-12T14:18:26.017Z,98692.91
2023-04-12T14:20:54.737Z,98693.56
2023-04-12T14:23:24.895Z,98697.59
2023-04-12T14:25:52.630Z,98687.00
2023-04-12T14:28:21.647Z,98691.59
2023-04-12T14:30:51.053Z,98689.25
2023-04-12T14:33:18.953Z,98691.78
2023-04-12T14:35:46.595Z,98687.09
2023-04-12T14:38:14.271Z,98689.06
2023-04-12T14:40:41.955Z,98688.22
2023-04-12T14:43:09.387Z,98696.00
2023-04-12T14:45:37.527Z,98686.12
2023-04-12T14:48:05.299Z,98680.84
2023-04-12T14:50:33.462Z,98681.84
2023-04-12T14:53:00.986Z,98684.38
2023-04-12T14:55:28.702Z,98684.16
2023-04-12T14:57:56.122Z,98681.72
2023-04-12T15:00:23.664Z,98682.25
2023-04-12T15:02:51.526Z,98680.72
2023-04-12T15:05:19.396Z,98693.09
2023-04-12T15:07:47.909Z,98691.66
2023-04-12T15:10:18.810Z,98693.13
2023-04-12T15:12:46.609Z,98692.59
2023-04-12T15:15:14.121Z,98696.81
2023-04-12T15:17:41.845Z,98697.75
2023-04-12T15:20:09.663Z,98692.53
2023-04-12T15:22:37.743Z,98690.53
2023-04-12T15:25:06.724Z,98691.94
2023-04-12T15:27:34.209Z,98688.97
2023-04-12T15:30:10.935Z,98681.94
2023-04-12T15:32:41.404Z,98687.12
2023-04-12T15:35:25.426Z,98693.56
2023-04-12T15:37:55.467Z,98695.25
2023-04-12T15:40:23.251Z,98692.97
2023-04-12T15:42:50.646Z,98695.97
2023-04-12T15:45:18.331Z,98690.72
2023-04-12T15:47:46.188Z,98693.50
2023-04-12T15:50:14.258Z,98691.75
2023-04-12T15:52:44.225Z,98687.56
2023-04-12T15:55:12.029Z,98689.28
2023-04-12T15:57:39.724Z,98690.84
2023-04-12T16:00:21.020Z,98690.00
2023-04-12T16:02:57.430Z,98680.38
2023-04-12T16:05:26.238Z,98691.03
2023-04-12T16:07:54.412Z,98680.06
2023-04-12T16:10:22.335Z,98688.63
2023-04-12T16:12:51.874Z,98680.59
2023-04-12T16:15:20.601Z,98682.53
2023-04-12T16:17:49.132Z,98683.25
2023-04-12T16:20:17.292Z,98677.66
2023-04-12T16:22:45.919Z,98674.72
2023-04-12T16:25:13.338Z,98673.72
2023-04-12T16:27:41.312Z,98665.81
2023-04-12T16:30:10.603Z,98675.56
2023-04-12T16:32:38.270Z,98669.63
2023-04-12T16:35:06.214Z,98669.63
2023-04-12T16:37:34.511Z,98672.06
2023-04-12T16:40:02.194Z,98660.41
2023-04-12T16:42:31.871Z,98664.16
2023-04-12T16:44:59.725Z,98664.81
2023-04-12T16:47:27.252Z,98655.19
2023-04-12T16:49:54.870Z,98654.03
2023-04-12T16:52:23.287Z,98661.63
2023-04-12T16:54:50.996Z,98652.03
2023-04-12T16:57:18.521Z,98660.41
2023-04-12T16:59:46.326Z,98660.69
2023-04-12T17:02:14.535Z,98657.31
2023-04-12T17:04:42.165Z,98653.97
2023-04-12T17:07:10.471Z,98647.13
2023-04-12T17:09:38.089Z,98650.41
2023-04-12T17:12:06.763Z,98653.28
2023-04-12T17:14:34.601Z,98651.59
2023-04-12T17:17:03.815Z,98646.84
2023-04-12T17:19:33.329Z,98645.16
2023-04-12T17:22:01.102Z,98658.25
2023-04-12T17:24:29.239Z,98657.63
2023-04-12T17:26:57.347Z,98655.84
2023-04-12T17:29:25.529Z,98659.31
2023-04-12T17:31:55.024Z,98655.88
2023-04-12T17:34:22.851Z,98648.31
2023-04-12T17:36:50.755Z,98650.72
2023-04-12T17:39:18.359Z,98651.44
2023-04-12T17:41:46.975Z,98651.56
2023-04-12T17:44:14.879Z,98647.09
2023-04-12T17:46:43.551Z,98652.09
2023-04-12T17:49:11.104Z,98652.84
2023-04-12T17:51:38.922Z,98652.03
2023-04-12T17:54:06.503Z,98657.53
2023-04-12T17:56:33.926Z,98652.75
2023-04-12T17:59:02.564Z,98658.63
2023-04-12T18:01:31.635Z,98653.28
2023-04-12T18:04:02.621Z,98649.94
2023-04-12T18:06:31.651Z,98658.31
2023-04-12T18:08:59.599Z,98656.88
2023-04-12T18:11:27.528Z,98669.16
2023-04-12T18:13:55.220Z,98659.81
2023-04-12T18:16:23.297Z,98660.37
2023-04-12T18:18:50.835Z,98659.69
2023-04-12T18:21:21.347Z,98662.25
2023-04-12T18:23:49.332Z,98660.72
2023-04-12T18:26:17.057Z,98657.81
2023-04-12T18:28:44.471Z,98657.56
2023-04-12T18:31:12.503Z,98657.81
2023-04-12T18:33:39.941Z,98664.41
2023-04-12T18:36:07.667Z,98669.44
2023-04-12T18:38:36.195Z,98664.25
2023-04-12T18:41:06.021Z,98661.63
2023-04-12T18:43:33.428Z,98672.03
2023-04-12T18:46:01.499Z,98681.16
2023-04-12T18:48:30.322Z,98675.66
2023-04-12T18:50:59.402Z,98674.66
2023-04-12T18:53:27.201Z,98671.59
2023-04-12T18:55:54.852Z,98679.91
2023-04-12T18:58:23.584Z,98682.94
2023-04-12T19:00:51.733Z,98685.28
2023-04-12T19:03:19.259Z,98683.56
2023-04-12T19:05:46.818Z,98682.41
2023-04-12T19:08:15.186Z,98685.28
2023-04-12T19:10:42.692Z,98681.59
2023-04-12T19:13:10.152Z,98681.91
2023-04-12T19:15:38.324Z,98680.22
2023-04-12T19:18:06.176Z,98688.63
2023-04-12T19:20:33.891Z,98687.63
2023-04-12T19:23:02.187Z,98693.34
2023-04-12T19:25:31.626Z,98684.97
2023-04-12T19:28:00.512Z,98695.56
2023-04-12T19:30:32.066Z,98689.03
2023-04-12T19:32:59.933Z,98693.53
2023-04-12T19:35:32.660Z,98688.50
2023-04-12T19:38:00.107Z,98690.34
2023-04-12T19:40:29.828Z,98691.03
2023-04-12T19:42:58.444Z,98687.63
2023-04-12T19:45:27.932Z,98681.19
2023-04-12T19:47:55.957Z,98685.28
2023-04-12T19:50:23.533Z,98679.84
2023-04-12T19:52:51.788Z,98678.47
2023-04-12T19:55:21.546Z,98672.59
2023-04-12T19:57:49.133Z,98671.72
2023-04-12T20:00:20.650Z,98676.03
2023-04-12T20:02:49.454Z,98669.47
2023-04-12T20:05:17.150Z,98666.97
2023-04-12T20:07:44.589Z,98669.69
2023-04-12T20:10:13.392Z,98671.34
2023-04-12T20:12:41.369Z,98665.47
2023-04-12T20:15:11.735Z,98665.00
2023-04-12T20:17:48.455Z,98666.31
2023-04-12T20:20:16.083Z,98663.09
2023-04-12T20:22:46.044Z,98657.56
2023-04-12T20:25:14.687Z,98652.66
2023-04-12T20:27:44.676Z,98650.81
2023-04-12T20:30:16.929Z,98651.25
2023-04-12T20:32:44.545Z,98657.09
2023-04-12T20:35:15.312Z,98659.34
2023-04-12T20:37:43.325Z,98661.69
2023-04-12T20:40:11.519Z,98659.37
2023-04-12T20:42:39.305Z,98661.97
2023-04-12T20:45:07.693Z,98655.53
2023-04-12T20:47:35.631Z,98651.34
2023-04-12T20:50:04.579Z,98646.81
2023-04-12T20:52:32.232Z,98640.75
2023-04-12T20:54:59.644Z,98643.41
2023-04-12T20:57:27.609Z,98643.06
2023-04-12T20:59:55.418Z,98633.31
2023-04-12T21:02:23.163Z,98634.63
2023-04-12T21:04:51.485Z,98636.75
2023-04-12T21:07:20.255Z,98638.78
2023-04-12T21:09:48.332Z,98633.59
2023-04-12T21:12:17.654Z,98630.91
2023-04-12T21:14:50.049Z,98636.00
2023-04-12T21:17:22.413Z,98632.69
2023-04-12T21:19:50.298Z,98631.72
2023-04-12T21:22:18.230Z,98632.09
2023-04-12T21:24:45.586Z,98633.16
2023-04-12T21:27:14.605Z,98635.16
2023-04-12T21:29:42.338Z,98641.12
2023-04-12T21:32:09.791Z,98633.50
2023-04-12T21:34:37.438Z,98628.28
2023-04-12T21:37:05.493Z,98621.41
2023-04-12T21:39:33.259Z,98622.44
2023-04-12T21:42:01.641Z,98613.84
2023-04-12T21:44:30.859Z,98619.09
2023-04-12T21:46:58.260Z,98614.50
2023-04-12T21:49:25.688Z,98612.84
2023-04-12T21:51:56.923Z,98620.44
2023-04-12T21:54:24.309Z,98615.22
2023-04-12T21:56:51.682Z,98605.19
2023-04-12T21:59:19.293Z,98600.84
2023-04-12T22:01:46.844Z,98604.69
2023-04-12T22:04:14.552Z,98599.91
2023-04-12T22:06:44.542Z,98595.50
2023-04-12T22:09:11.905Z,98599.59
2023-04-12T22:11:39.538Z,98595.16
2023-04-12T22:14:07.068Z,98599.59
2023-04-12T22:16:34.796Z,98593.94
2023-04-12T22:19:02.661Z,98590.31
2023-04-12T22:21:30.862Z,98588.03
2023-04-12T22:23:58.890Z,98590.37
2023-04-12T22:26:26.859Z,98594.31
2023-04-12T22:28:54.294Z,98590.31
2023-04-12T22:31:22.976Z,98592.00
2023-04-12T22:33:54.998Z,98588.88
2023-04-12T22:36:28.580Z,98575.03
2023-04-12T22:38:57.345Z,98588.59
2023-04-12T22:41:28.283Z,98591.13
2023-04-12T22:44:01.357Z,98580.94
2023-04-12T22:46:32.959Z,98577.72
2023-04-12T22:49:04.696Z,98577.94
2023-04-12T22:51:32.596Z,98591.22
2023-04-12T22:54:00.444Z,98583.69
2023-04-12T22:56:29.230Z,98585.53
2023-04-12T22:58:56.970Z,98583.47
2023-04-12T23:01:25.205Z,98589.88
2023-04-12T23:03:52.664Z,98580.97
2023-04-12T23:06:20.586Z,98583.91
2023-04-12T23:08:49.650Z,98583.84
2023-04-12T23:11:17.205Z,98581.59
2023-04-12T23:13:44.930Z,98585.69
2023-04-12T23:16:12.434Z,98573.31
2023-04-12T23:18:39.853Z,98572.91
2023-04-12T23:21:11.108Z,98571.19
2023-04-12T23:23:38.617Z,98572.91
2023-04-12T23:26:06.236Z,98568.72
2023-04-12T23:28:34.330Z,98568.00
2023-04-12T23:31:01.757Z,98566.50
2023-04-12T23:33:29.162Z,98562.88
2023-04-12T23:35:57.100Z,98560.56
2023-04-12T23:38:32.010Z,98558.47
2023-04-12T23:41:00.534Z,98550.03
2023-04-12T23:43:28.381Z,98556.53
2023-04-12T23:45:56.552Z,98554.03
2023-04-12T23:48:24.923Z,98548.69
2023-04-12T23:50:52.305Z,98550.69
2023-04-12T23:53:20.554Z,98554.41
2023-04-12T23:55:51.269Z,98548.03
2023-04-12T23:58:19.554Z,98544.00
